Time;durP1;ratioP1;P1;durP2;ratioP2;P2;SDS_P1;SDS_P2;PMS_P1;PMS_P2;Temp;Humidity;BMP_temperature;BMP_pressure;BME280_temperature;BME280_humidity;BME280_pressure;Samples;Min_cycle;Max_cycle;Signal;HPM_P1;HPM_P2
2023/02/17 00:01:31;;;;;;;27.00;15.90;;;;;;;1.50;70.60;99726.95;105568;1256;71933;-67
2023/02/17 00:03:59;;;;;;;25.20;15.60;;;;;;;1.50;70.70;99722.93;105659;1253;60574;-65
2023/02/17 00:06:28;;;;;;;27.70;16.30;;;;;;;1.51;70.83;99720.25;105717;1253;60994;-64
2023/02/17 00:09:00;;;;;;;22.40;14.40;;;;;;;1.51;70.91;99721.30;105510;1256;74954;-67
2023/02/17 00:11:29;;;;;;;23.20;14.70;;;;;;;1.52;70.88;99720.66;105632;1254;70547;-65
2023/02/17 00:13:59;;;;;;;22.90;13.60;;;;;;;1.62;70.87;99718.42;105616;1256;72564;-66
2023/02/17 00:16:27;;;;;;;23.30;13.80;;;;;;;1.76;70.90;99720.16;105608;1254;60428;-71
2023/02/17 00:18:57;;;;;;;21.60;14.80;;;;;;;1.80;70.71;99720.56;105545;1257;60540;-65
2023/02/17 00:21:28;;;;;;;25.50;16.30;;;;;;;1.79;70.88;99713.69;105778;1254;74954;-64
2023/02/17 00:23:56;;;;;;;23.10;15.50;;;;;;;1.75;70.84;99711.70;105680;1256;70684;-64
2023/02/17 00:26:24;;;;;;;23.20;15.40;;;;;;;1.71;70.89;99702.71;105858;1254;72646;-66
2023/02/17 00:28:53;;;;;;;22.40;15.10;;;;;;;1.69;70.92;99699.89;105630;1254;60383;-63
2023/02/17 00:31:23;;;;;;;25.50;15.70;;;;;;;1.67;71.15;99701.98;105579;1254;60402;-65
2023/02/17 00:33:54;;;;;;;22.60;15.80;;;;;;;1.65;71.14;99701.10;105686;1253;74034;-64
2023/02/17 00:36:22;;;;;;;24.70;15.10;;;;;;;1.62;71.34;99703.36;105638;1256;68522;-66
2023/02/17 00:38:52;;;;;;;24.40;14.90;;;;;;;1.62;71.38;99702.88;105543;1254;73489;-64
2023/02/17 00:41:21;;;;;;;21.30;14.00;;;;;;;1.72;71.26;99700.54;105560;1254;60447;-64
2023/02/17 00:43:49;;;;;;;22.20;15.30;;;;;;;1.82;71.22;99699.83;105571;1254;61332;-64
2023/02/17 00:46:17;;;;;;;25.80;15.50;;;;;;;1.83;71.17;99695.55;105528;1255;72532;-64
2023/02/17 00:48:47;;;;;;;25.20;16.00;;;;;;;1.83;71.28;99696.42;105771;1252;70630;-65
2023/02/17 00:51:16;;;;;;;25.90;17.50;;;;;;;1.83;71.27;99689.10;105749;1254;72783;-65
2023/02/17 00:53:44;;;;;;;25.30;15.30;;;;;;;1.83;71.25;99689.80;105617;1254;60488;-65
2023/02/17 00:56:13;;;;;;;25.80;16.10;;;;;;;1.81;71.40;99689.59;105501;1254;61118;-65
2023/02/17 00:58:41;;;;;;;21.60;14.20;;;;;;;1.78;71.47;99686.85;105663;1256;72732;-64
2023/02/17 01:01:10;;;;;;;23.50;15.90;;;;;;;1.74;71.54;99684.66;105598;1254;70561;-64
2023/02/17 01:03:40;;;;;;;25.80;15.70;;;;;;;1.72;71.64;99684.29;105536;1253;71895;-62
2023/02/17 01:06:10;;;;;;;30.30;16.20;;;;;;;1.72;71.70;99675.72;105397;1252;62000;-65
2023/02/17 01:08:40;;;;;;;24.80;15.50;;;;;;;1.84;71.52;99675.28;105361;1253;60700;-63
2023/02/17 01:11:16;;;;;;;22.00;14.30;;;;;;;1.94;71.43;99675.14;105604;1256;73973;-67
2023/02/17 01:13:45;;;;;;;23.60;16.60;;;;;;;1.95;71.47;99670.38;105559;1254;71480;-64
2023/02/17 01:16:22;;;;;;;23.10;15.40;;;;;;;1.97;71.51;99671.48;105671;1257;72585;-64
2023/02/17 01:18:50;;;;;;;23.30;15.50;;;;;;;2.02;71.41;99673.15;105694;1254;60485;-74
2023/02/17 01:21:21;;;;;;;27.90;17.90;;;;;;;2.07;71.31;99670.52;105744;1254;60539;-73
2023/02/17 01:23:50;;;;;;;26.70;16.40;;;;;;;2.09;71.17;99669.55;105710;1254;73842;-73
2023/02/17 01:26:20;;;;;;;30.80;20.60;;;;;;;2.08;71.30;99665.25;105719;1256;67946;-73
2023/02/17 01:28:49;;;;;;;28.40;17.90;;;;;;;2.02;71.25;99662.90;108518;1253;72976;-69
2023/02/17 01:31:17;;;;;;;23.60;16.30;;;;;;;1.94;71.36;99659.08;108586;1254;59880;-76
2023/02/17 01:33:47;;;;;;;26.40;16.00;;;;;;;1.98;71.44;99658.14;107010;1253;60513;-72
2023/02/17 01:36:16;;;;;;;24.90;16.70;;;;;;;2.05;71.47;99660.77;105908;1256;72335;-71
2023/02/17 01:38:47;;;;;;;27.30;17.90;;;;;;;2.01;71.73;99659.61;105926;1257;70408;-72
2023/02/17 01:41:19;;;;;;;26.10;17.20;;;;;;;1.94;71.82;99663.62;105545;1257;72773;-66
2023/02/17 01:44:20;;;;;;;26.80;17.40;;;;;;;1.90;71.96;99663.63;105555;1256;60510;-68
2023/02/17 01:46:50;;;;;;;23.70;16.80;;;;;;;1.87;72.30;99664.31;105684;1256;60774;-68
2023/02/17 01:49:23;;;;;;;26.80;17.60;;;;;;;1.84;72.44;99666.85;105613;1256;74469;-66
2023/02/17 01:52:02;;;;;;;29.50;18.50;;;;;;;1.83;72.52;99668.14;105610;1254;69636;-68
2023/02/17 01:54:45;;;;;;;25.30;17.10;;;;;;;1.84;72.57;99666.12;105564;1254;72415;-66
2023/02/17 01:57:15;;;;;;;26.70;17.50;;;;;;;1.87;72.44;99664.15;105531;1254;60453;-69
2023/02/17 01:59:44;;;;;;;29.60;18.80;;;;;;;1.86;72.32;99658.98;105587;1259;60398;-69
2023/02/17 02:02:12;;;;;;;24.40;16.00;;;;;;;1.85;72.46;99657.90;105501;1256;74094;-70
2023/02/17 02:04:43;;;;;;;25.90;16.10;;;;;;;1.91;72.36;99662.12;105884;1254;71580;-71
2023/02/17 02:07:24;;;;;;;26.20;17.30;;;;;;;2.02;72.24;99660.98;105726;1258;71902;-69
2023/02/17 02:09:55;;;;;;;27.10;17.00;;;;;;;2.06;72.16;99662.20;105728;1254;60545;-70
2023/02/17 02:12:34;;;;;;;30.70;18.60;;;;;;;2.07;72.23;99661.33;105873;1254;60418;-71
2023/02/17 02:15:07;;;;;;;27.80;17.20;;;;;;;2.06;72.19;99658.41;105479;1257;74828;-69
2023/02/17 02:17:58;;;;;;;32.60;18.30;;;;;;;2.03;72.21;99660.20;105767;1260;70471;-70
2023/02/17 02:20:32;;;;;;;27.70;18.30;;;;;;;2.03;72.32;99659.85;105465;1259;71343;-72
2023/02/17 02:23:25;;;;;;;28.80;19.60;;;;;;;2.01;72.22;99656.30;105521;1256;60450;-67
2023/02/17 02:26:13;;;;;;;29.00;19.20;;;;;;;1.95;72.30;99655.50;105355;1254;60533;-67
2023/02/17 02:28:53;;;;;;;26.70;18.00;;;;;;;1.94;72.47;99653.69;105376;1259;74020;-68
2023/02/17 02:31:29;;;;;;;25.70;17.60;;;;;;;1.93;72.38;99652.88;105847;1254;71357;-69
2023/02/17 02:34:03;;;;;;;32.00;18.50;;;;;;;1.91;72.48;99651.11;105959;1256;71681;-68
2023/02/17 02:36:34;;;;;;;28.70;18.30;;;;;;;1.99;72.47;99647.05;105326;1257;61347;-70
2023/02/17 02:39:15;;;;;;;29.00;18.30;;;;;;;2.08;72.47;99644.61;105503;1256;60425;-66
2023/02/17 02:42:00;;;;;;;26.80;17.00;;;;;;;2.08;72.53;99643.88;105506;1254;72948;-68
2023/02/17 02:44:33;;;;;;;31.10;18.70;;;;;;;2.07;72.63;99644.48;105380;1257;71679;-66
2023/02/17 02:47:05;;;;;;;28.90;19.50;;;;;;;2.07;72.56;99649.60;105550;1256;73492;-67
2023/02/17 02:49:34;;;;;;;30.90;19.20;;;;;;;2.04;72.76;99655.19;105638;1256;60515;-67
2023/02/17 02:52:22;;;;;;;32.40;20.50;;;;;;;1.98;72.89;99657.79;105638;1256;60540;-67
2023/02/17 02:55:13;;;;;;;31.40;20.60;;;;;;;1.91;73.08;99657.91;105715;1259;74805;-68
2023/02/17 02:58:00;;;;;;;30.30;19.50;;;;;;;1.84;73.29;99660.95;105375;1256;70329;-70
2023/02/17 03:00:45;;;;;;;32.10;19.80;;;;;;;1.78;73.48;99661.31;105335;1257;71875;-69
2023/02/17 03:03:26;;;;;;;31.90;18.90;;;;;;;1.77;73.61;99664.88;105315;1256;61005;-74
2023/02/17 03:05:59;;;;;;;29.60;19.10;;;;;;;1.88;73.56;99666.53;105713;1255;60518;-69
2023/02/17 03:08:42;;;;;;;33.00;19.90;;;;;;;1.95;73.65;99669.30;105362;1260;73316;-69
2023/02/17 03:11:11;;;;;;;30.50;20.60;;;;;;;1.92;73.71;99674.78;105367;1258;69535;-69
2023/02/17 03:13:40;;;;;;;33.90;20.40;;;;;;;1.87;74.09;99678.31;105312;1254;73036;-66
2023/02/17 03:16:13;;;;;;;34.90;20.70;;;;;;;1.86;74.14;99679.10;105559;1254;60491;-65
2023/02/17 03:18:41;;;;;;;33.60;21.00;;;;;;;1.84;74.22;99676.06;105517;1253;60498;-66
2023/02/17 03:21:13;;;;;;;35.10;21.30;;;;;;;1.83;74.37;99675.68;105637;1259;72793;-68
2023/02/17 03:23:42;;;;;;;31.80;21.00;;;;;;;1.78;74.47;99674.59;105443;1257;68148;-67
2023/02/17 03:26:10;;;;;;;35.50;22.50;;;;;;;1.71;74.54;99675.65;105141;1254;355242;-69
2023/02/17 03:29:56;;;;;;;35.70;22.80;;;;;;;1.80;74.76;99679.52;102644;1293;600347;-67
2023/02/17 03:32:24;;;;;;;33.80;23.20;;;;;;;1.77;74.87;99673.28;105469;1263;59302;-69
2023/02/17 03:34:53;;;;;;;33.60;23.30;;;;;;;1.72;74.98;99674.21;105330;1263;60272;-65
2023/02/17 03:37:21;;;;;;;32.40;23.00;;;;;;;1.69;75.16;99673.55;105186;1261;72413;-66
2023/02/17 03:39:49;;;;;;;37.00;22.60;;;;;;;1.66;75.16;99670.07;105411;1264;70712;-67
2023/02/17 03:42:17;;;;;;;36.60;24.40;;;;;;;1.64;75.26;99673.04;105038;1264;72172;-68
2023/02/17 03:44:45;;;;;;;41.10;25.70;;;;;;;1.64;75.51;99675.85;105078;1261;161809;-67
2023/02/17 03:47:13;;;;;;;36.80;22.60;;;;;;;1.65;75.53;99674.89;105692;1261;60943;-69
2023/02/17 03:49:42;;;;;;;33.00;22.70;;;;;;;1.73;75.31;99675.82;105544;1263;72295;-67
2023/02/17 03:52:10;;;;;;;35.90;22.30;;;;;;;1.83;75.26;99676.70;105439;1261;70531;-66
2023/02/17 03:54:38;;;;;;;35.80;23.70;;;;;;;1.84;75.22;99678.69;105702;1261;72206;-65
2023/02/17 03:57:06;;;;;;;35.10;23.00;;;;;;;1.81;75.38;99683.48;106050;1254;59788;-69
2023/02/17 03:59:35;;;;;;;38.10;23.20;;;;;;;1.78;75.51;99683.73;106090;1254;60525;-70
2023/02/17 04:02:08;;;;;;;36.90;24.20;;;;;;;1.74;75.56;99683.13;106174;1254;73271;-66
2023/02/17 04:04:37;;;;;;;37.60;24.40;;;;;;;1.73;75.59;99682.85;105888;1254;71627;-66
2023/02/17 04:07:06;;;;;;;36.80;25.50;;;;;;;1.71;75.64;99684.00;105836;1254;71183;-70
2023/02/17 04:09:37;;;;;;;36.00;23.70;;;;;;;1.72;75.87;99683.23;106124;1254;59724;-70
2023/02/17 04:12:05;;;;;;;31.90;21.00;;;;;;;1.72;75.78;99686.23;106431;1254;60543;-70
2023/02/17 04:14:33;;;;;;;33.00;22.10;;;;;;;1.79;75.60;99686.73;106369;1254;71315;-70
2023/02/17 04:17:01;;;;;;;33.80;21.00;;;;;;;1.85;75.38;99684.62;106446;1254;69554;-71
2023/02/17 04:19:30;;;;;;;35.70;21.90;;;;;;;1.82;75.63;99686.71;106846;1254;72960;-68
2023/02/17 04:21:59;;;;;;;30.00;20.70;;;;;;;1.80;75.96;99679.56;107107;1254;59741;-68
2023/02/17 04:24:28;;;;;;;32.30;21.70;;;;;;;1.77;75.83;99685.35;107473;1254;59589;-69
2023/02/17 04:26:56;;;;;;;33.10;22.50;;;;;;;1.74;76.06;99687.28;107396;1257;71836;-69
2023/02/17 04:29:24;;;;;;;37.40;23.00;;;;;;;1.73;76.12;99687.23;107162;1253;69411;-69
2023/02/17 04:31:52;;;;;;;34.20;22.90;;;;;;;1.69;76.15;99689.96;108490;1254;72596;-70
2023/02/17 04:34:21;;;;;;;34.80;21.50;;;;;;;1.65;76.23;99693.73;108591;1253;59857;-68
2023/02/17 04:36:49;;;;;;;34.50;20.50;;;;;;;1.73;75.96;99683.52;108947;1253;61031;-66
2023/02/17 04:39:17;;;;;;;31.40;21.50;;;;;;;1.85;75.91;99681.60;108186;1254;73233;-67
2023/02/17 04:41:46;;;;;;;30.20;19.80;;;;;;;1.90;76.05;99682.67;108046;1254;68802;-67
2023/02/17 04:44:14;;;;;;;35.00;20.80;;;;;;;1.89;75.96;99685.16;107240;1259;73591;-68
2023/02/17 04:46:42;;;;;;;32.30;22.20;;;;;;;1.84;76.00;99689.17;106948;1259;59788;-69
2023/02/17 04:49:10;;;;;;;32.30;22.60;;;;;;;1.81;76.21;99696.59;106867;1257;60249;-67
2023/02/17 04:51:39;;;;;;;36.20;24.00;;;;;;;1.77;76.04;99696.33;106886;1254;73017;-68
2023/02/17 04:54:08;;;;;;;35.50;22.60;;;;;;;1.72;76.39;99701.44;106861;1254;71656;-66
2023/02/17 04:56:37;;;;;;;35.80;22.10;;;;;;;1.70;76.38;99705.04;105434;1260;73944;-69
2023/02/17 04:59:06;;;;;;;32.70;20.90;;;;;;;1.80;76.24;99703.83;106298;1256;60114;-68
2023/02/17 05:01:34;;;;;;;32.90;21.60;;;;;;;1.89;76.09;99701.96;105514;1256;59696;-68
2023/02/17 05:04:07;;;;;;;33.70;22.30;;;;;;;1.86;76.26;99701.08;105628;1257;73210;-70
2023/02/17 05:06:36;;;;;;;36.40;23.10;;;;;;;1.83;76.40;99700.31;105692;1254;70514;-70
2023/02/17 05:09:05;;;;;;;31.80;22.40;;;;;;;1.79;76.54;99704.36;105658;1254;73872;-69
2023/02/17 05:11:33;;;;;;;35.20;24.10;;;;;;;1.75;76.59;99709.36;105569;1254;60668;-66
2023/02/17 05:14:01;;;;;;;34.30;22.70;;;;;;;1.74;76.55;99706.52;105542;1255;60466;-66
2023/02/17 05:16:29;;;;;;;33.70;23.00;;;;;;;1.73;76.69;99707.67;105494;1257;72601;-66
2023/02/17 05:18:57;;;;;;;34.90;20.90;;;;;;;1.71;76.68;99702.04;105615;1254;70380;-68
2023/02/17 05:21:28;;;;;;;30.50;20.50;;;;;;;1.80;76.67;99701.37;105601;1257;71767;-71
2023/02/17 05:23:56;;;;;;;33.70;21.50;;;;;;;1.88;76.51;99702.84;105312;1254;61088;-70
2023/02/17 05:26:24;;;;;;;34.00;21.80;;;;;;;1.87;76.51;99704.89;105611;1255;59726;-69
2023/02/17 05:28:53;;;;;;;35.80;23.10;;;;;;;1.81;76.67;99703.53;105671;1260;74256;-68
2023/02/17 05:31:21;;;;;;;37.00;22.80;;;;;;;1.75;76.71;99709.73;105598;1254;71259;-71
2023/02/17 05:33:53;;;;;;;35.30;22.20;;;;;;;1.71;77.00;99712.33;105723;1254;73906;-67
2023/02/17 05:36:21;;;;;;;35.30;22.80;;;;;;;1.69;77.20;99715.80;105464;1257;60670;-66
2023/02/17 05:38:50;;;;;;;36.20;21.90;;;;;;;1.64;77.25;99719.09;106757;1254;60222;-69
2023/02/17 05:41:19;;;;;;;37.40;23.40;;;;;;;1.64;77.26;99724.39;105922;1258;73296;-67
2023/02/17 05:43:48;;;;;;;33.20;20.60;;;;;;;1.71;77.22;99728.54;105570;1254;69472;-70
2023/02/17 05:46:16;;;;;;;34.60;21.90;;;;;;;1.79;77.01;99735.67;105956;1260;73091;-67
2023/02/17 05:48:47;;;;;;;35.30;24.30;;;;;;;1.80;77.26;99734.02;105517;1254;59911;-66
2023/02/17 05:51:16;;;;;;;43.50;26.70;;;;;;;1.80;77.34;99742.57;105626;1255;60334;-67
2023/02/17 05:53:45;;;;;;;42.90;28.00;;;;;;;1.78;77.43;99740.29;105582;1254;73451;-68
2023/02/17 05:56:13;;;;;;;44.40;28.20;;;;;;;1.74;77.55;99739.37;105662;1257;71355;-68
2023/02/17 05:58:43;;;;;;;42.30;26.00;;;;;;;1.69;77.56;99739.52;105567;1255;71773;-72
2023/02/17 06:01:11;;;;;;;45.80;27.90;;;;;;;1.66;77.70;99737.00;105313;1254;60649;-70
2023/02/17 06:03:40;;;;;;;42.70;26.30;;;;;;;1.64;77.76;99742.32;105899;1252;60628;-72
2023/02/17 06:06:08;;;;;;;37.40;24.60;;;;;;;1.74;77.84;99747.75;105828;1256;74192;-71
2023/02/17 06:08:36;;;;;;;41.80;26.20;;;;;;;1.88;77.53;99744.13;105692;1251;71591;-72
2023/02/17 06:11:10;;;;;;;44.10;26.80;;;;;;;1.93;77.43;99750.20;105696;1251;71332;-69
2023/02/17 06:13:38;;;;;;;42.90;25.50;;;;;;;1.95;77.39;99752.09;105746;1254;59734;-69
2023/02/17 06:16:06;;;;;;;42.10;26.90;;;;;;;1.95;77.45;99756.48;105828;1251;59809;-69
2023/02/17 06:18:35;;;;;;;40.30;26.50;;;;;;;1.96;77.41;99759.57;105931;1257;73223;-69
2023/02/17 06:21:03;;;;;;;39.50;26.00;;;;;;;1.98;77.32;99760.34;105795;1254;71680;-70
2023/02/17 06:23:32;;;;;;;43.50;26.10;;;;;;;1.98;77.40;99764.00;105758;1251;73566;-68
2023/02/17 06:26:00;;;;;;;38.10;24.60;;;;;;;2.02;77.38;99769.79;105816;1251;60476;-73
2023/02/17 06:28:28;;;;;;;40.50;25.90;;;;;;;2.15;76.89;99770.95;105719;1257;60811;-68
2023/02/17 06:30:56;;;;;;;38.40;24.40;;;;;;;2.27;76.41;99772.86;105788;1255;74627;-70
2023/02/17 06:33:25;;;;;;;45.10;26.30;;;;;;;2.27;75.96;99770.95;105812;1254;71503;-70
2023/02/17 06:35:53;;;;;;;38.30;25.30;;;;;;;2.25;75.85;99771.95;105762;1254;72657;-68
2023/02/17 06:38:21;;;;;;;45.40;25.90;;;;;;;2.23;75.53;99776.12;107325;1251;59839;-71
2023/02/17 06:40:50;;;;;;;40.70;25.60;;;;;;;2.20;75.06;99782.27;107187;1254;61064;-67
2023/02/17 06:43:20;;;;;;;38.30;25.60;;;;;;;2.14;74.78;99793.70;106362;1254;71857;-72
2023/02/17 06:45:48;;;;;;;39.20;26.00;;;;;;;2.09;74.85;99792.13;105886;1254;70028;-71
2023/02/17 06:48:17;;;;;;;42.10;26.80;;;;;;;2.05;74.72;99794.40;105841;1255;73885;-71
2023/02/17 06:50:48;;;;;;;37.80;24.80;;;;;;;2.01;74.52;99791.40;105656;1252;61877;-72
2023/02/17 06:53:16;;;;;;;36.90;24.10;;;;;;;2.08;74.46;99787.33;105801;1252;61532;-71
2023/02/17 06:55:44;;;;;;;32.10;22.20;;;;;;;2.16;74.27;99786.55;105670;1257;74052;-71
2023/02/17 06:58:13;;;;;;;34.00;21.90;;;;;;;2.15;74.35;99790.31;105810;1255;71610;-70
2023/02/17 07:00:41;;;;;;;35.20;23.50;;;;;;;2.10;73.93;99789.98;105712;1255;73113;-71
2023/02/17 07:03:10;;;;;;;37.60;23.50;;;;;;;2.02;73.94;99796.16;105656;1254;60873;-71
2023/02/17 07:05:39;;;;;;;34.00;22.40;;;;;;;1.93;74.24;99794.38;106017;1257;59803;-74
2023/02/17 07:08:07;;;;;;;36.00;24.50;;;;;;;1.90;74.27;99799.86;105970;1251;72929;-73
2023/02/17 07:10:36;;;;;;;37.70;24.60;;;;;;;1.87;74.36;99804.80;106141;1254;71147;-75
2023/02/17 07:13:07;;;;;;;38.40;25.60;;;;;;;1.82;74.30;99807.57;105971;1256;73831;-75
2023/02/17 07:15:36;;;;;;;39.40;25.40;;;;;;;1.78;74.26;99812.01;105949;1257;60627;-75
2023/02/17 07:18:04;;;;;;;39.70;24.40;;;;;;;1.86;74.25;99810.12;105901;1254;59740;-77
2023/02/17 07:20:34;;;;;;;39.80;24.70;;;;;;;1.96;74.37;99815.45;106051;1254;71167;-69
2023/02/17 07:23:03;;;;;;;39.10;24.30;;;;;;;2.01;74.18;99811.09;105946;1251;71612;-72
2023/02/17 07:25:33;;;;;;;39.20;26.50;;;;;;;2.04;74.31;99812.98;105875;1256;73192;-74
2023/02/17 07:28:01;;;;;;;36.10;25.20;;;;;;;2.06;74.17;99808.31;105871;1251;60127;-74
2023/02/17 07:30:31;;;;;;;40.40;25.30;;;;;;;2.07;74.00;99810.86;105708;1253;59611;-76
2023/02/17 07:32:59;;;;;;;41.00;25.30;;;;;;;2.05;73.86;99811.28;105811;1254;72238;-75
2023/02/17 07:35:27;;;;;;;40.00;24.30;;;;;;;2.05;73.98;99810.97;105887;1252;70674;-76
2023/02/17 07:37:57;;;;;;;36.10;22.50;;;;;;;2.03;73.84;99808.48;106173;1251;72905;-75
2023/02/17 07:40:25;;;;;;;38.00;22.80;;;;;;;2.04;73.83;99809.14;106376;1251;60775;-72
2023/02/17 07:42:55;;;;;;;32.90;22.40;;;;;;;2.13;73.62;99811.63;106222;1254;60421;-73
2023/02/17 07:45:23;;;;;;;35.00;24.80;;;;;;;2.22;73.27;99811.69;105885;1256;74196;-74
2023/02/17 07:47:51;;;;;;;33.10;23.20;;;;;;;2.21;73.36;99816.62;105824;1254;71214;-74
2023/02/17 07:50:19;;;;;;;41.60;25.70;;;;;;;2.19;73.60;99822.00;105680;1256;73873;-74
2023/02/17 07:52:47;;;;;;;38.40;25.50;;;;;;;2.19;73.46;99826.60;105881;1257;60455;-71
2023/02/17 07:55:15;;;;;;;40.30;27.50;;;;;;;2.18;73.40;99829.10;105796;1251;60485;-71
2023/02/17 07:57:43;;;;;;;36.80;25.80;;;;;;;2.11;73.24;99826.29;105707;1256;75286;-73
2023/02/17 08:00:13;;;;;;;39.00;25.90;;;;;;;2.14;73.22;99837.89;105877;1254;71265;-72
2023/02/17 08:02:41;;;;;;;45.00;28.70;;;;;;;2.13;73.17;99840.45;105704;1254;72361;-72
2023/02/17 08:05:09;;;;;;;37.90;24.90;;;;;;;2.10;73.49;99840.11;105938;1251;60450;-74
2023/02/17 08:07:38;;;;;;;36.90;24.40;;;;;;;2.18;72.99;99834.00;105563;1254;60510;-72
2023/02/17 08:15:41;;;;;;;37.50;24.50;;;;;;;2.24;73.06;99838.40;105645;1254;73492;-72
2023/02/17 08:18:10;;;;;;;37.70;24.40;;;;;;;2.22;73.10;99837.90;105786;1254;60876;-75
2023/02/17 08:20:39;;;;;;;42.60;24.20;;;;;;;2.20;73.10;99839.05;106006;1252;60426;-75
2023/02/17 08:23:09;;;;;;;32.50;22.60;;;;;;;2.20;73.01;99846.04;105692;1254;73057;-72
2023/02/17 08:25:37;;;;;;;34.50;23.10;;;;;;;2.20;73.01;99849.76;105799;1254;69265;-75
2023/02/17 08:28:11;;;;;;;38.20;23.80;;;;;;;2.17;72.98;99852.58;105773;1255;73980;-73
2023/02/17 08:30:39;;;;;;;34.30;21.90;;;;;;;2.15;72.97;99853.77;105604;1255;60546;-71
2023/02/17 08:33:08;;;;;;;34.70;21.20;;;;;;;2.23;72.98;99853.23;105900;1252;60392;-72
2023/02/17 08:35:37;;;;;;;31.10;20.30;;;;;;;2.30;72.98;99853.70;105843;1256;72864;-73
2023/02/17 08:38:06;;;;;;;32.40;20.50;;;;;;;2.25;72.84;99861.91;105998;1257;69572;-72
2023/02/17 08:40:35;;;;;;;32.20;21.60;;;;;;;2.21;72.72;99861.02;106585;1253;71853;-71
2023/02/17 08:43:07;;;;;;;31.70;20.70;;;;;;;2.22;72.96;99862.05;108487;1251;60417;-73
2023/02/17 08:45:36;;;;;;;29.00;20.60;;;;;;;2.24;72.96;99865.14;108572;1254;60030;-74
2023/02/17 08:48:05;;;;;;;34.40;20.90;;;;;;;2.27;72.65;99866.00;106119;1257;73936;-72
2023/02/17 08:50:34;;;;;;;33.50;21.70;;;;;;;2.24;72.60;99869.67;105942;1258;69462;-71
2023/02/17 08:53:03;;;;;;;30.70;20.80;;;;;;;2.23;72.76;99871.53;105991;1254;73908;-72
2023/02/17 08:55:31;;;;;;;31.30;18.70;;;;;;;2.20;72.66;99874.90;105917;1254;61111;-73
2023/02/17 08:58:15;;;;;;;28.60;18.20;;;;;;;2.28;72.54;99873.30;105955;1253;60533;-72
2023/02/17 09:00:45;;;;;;;31.50;20.00;;;;;;;2.37;72.32;99874.39;105529;1260;74063;-66
2023/02/17 09:03:13;;;;;;;29.60;20.60;;;;;;;2.38;72.48;99877.63;106526;1254;70061;-67
2023/02/17 09:05:44;;;;;;;36.30;21.40;;;;;;;2.40;72.38;99871.37;105719;1253;73624;-67
2023/02/17 09:08:13;;;;;;;32.90;21.70;;;;;;;2.38;72.47;99865.73;105523;1254;60757;-68
2023/02/17 09:10:44;;;;;;;34.80;22.20;;;;;;;2.44;72.40;99870.84;105905;1257;61297;-69
2023/02/17 09:13:25;;;;;;;35.30;21.20;;;;;;;2.45;72.03;99875.66;105907;1257;75798;-71
2023/02/17 09:15:55;;;;;;;37.50;22.20;;;;;;;2.46;72.05;99885.23;105590;1260;69670;-68
2023/02/17 09:18:25;;;;;;;31.60;21.50;;;;;;;2.46;72.00;99885.06;105641;1253;73866;-69
2023/02/17 09:20:54;;;;;;;31.80;21.40;;;;;;;2.43;71.93;99887.04;105869;1252;60487;-67
2023/02/17 09:23:22;;;;;;;35.20;19.70;;;;;;;2.39;71.98;99888.36;106215;1252;61495;-66
2023/02/17 09:26:01;;;;;;;36.10;20.70;;;;;;;2.47;71.91;99887.47;106098;1255;74761;-69
2023/02/17 09:28:30;;;;;;;33.10;21.90;;;;;;;2.56;71.79;99882.95;106452;1254;73852;-71
2023/02/17 09:31:13;;;;;;;33.40;21.40;;;;;;;2.55;72.01;99878.80;106496;1253;72377;-70
2023/02/17 09:33:42;;;;;;;41.40;24.40;;;;;;;2.56;71.94;99877.14;105877;1254;60574;-67
2023/02/17 09:36:12;;;;;;;35.90;23.70;;;;;;;2.58;72.08;99878.08;106372;1254;60313;-71
2023/02/17 09:38:41;;;;;;;32.40;21.80;;;;;;;2.59;71.96;99878.52;106358;1259;72882;-67
2023/02/17 09:41:23;;;;;;;44.00;25.60;;;;;;;2.56;71.75;99884.02;105919;1257;69652;-67
2023/02/17 09:43:51;;;;;;;40.80;25.40;;;;;;;2.49;71.84;99882.00;106868;1254;73857;-68
2023/02/17 09:46:34;;;;;;;43.10;25.90;;;;;;;2.51;71.98;99881.73;106343;1257;60369;-66
2023/02/17 09:49:08;;;;;;;38.40;26.90;;;;;;;2.54;72.02;99880.98;106463;1254;60438;-67
2023/02/17 09:51:47;;;;;;;38.60;24.80;;;;;;;2.59;71.99;99881.36;108222;1256;72700;-63
2023/02/17 09:54:25;;;;;;;37.30;21.90;;;;;;;2.62;71.95;99879.54;107534;1255;69673;-66
2023/02/17 09:56:54;;;;;;;34.70;23.80;;;;;;;2.74;71.54;99882.45;107547;1254;71580;-66
2023/02/17 09:59:28;;;;;;;33.60;21.90;;;;;;;2.82;71.47;99881.70;107621;1254;59428;-67
2023/02/17 10:01:56;;;;;;;39.30;24.70;;;;;;;2.84;71.54;99878.59;107554;1254;60419;-65
2023/02/17 10:04:38;;;;;;;38.80;23.00;;;;;;;2.86;71.46;99877.38;107712;1253;73941;-67
2023/02/17 10:07:10;;;;;;;35.70;21.80;;;;;;;2.86;71.30;99875.48;107747;1253;71374;-66
2023/02/17 10:09:54;;;;;;;36.40;21.40;;;;;;;2.86;71.45;99873.55;107631;1254;72749;-66
2023/02/17 10:12:25;;;;;;;31.70;21.80;;;;;;;2.87;71.16;99875.40;108170;1254;60691;-67
2023/02/17 10:15:03;;;;;;;34.50;21.40;;;;;;;2.86;71.15;99878.58;105950;1254;60440;-66
2023/02/17 10:17:46;;;;;;;31.40;20.80;;;;;;;2.85;70.92;99872.89;108076;1253;74822;-66
2023/02/17 10:20:33;;;;;;;33.10;21.00;;;;;;;2.88;70.95;99879.70;108821;1254;68838;-66
2023/02/17 10:23:06;;;;;;;32.30;21.00;;;;;;;2.86;70.74;99875.95;106872;1257;72638;-65
2023/02/17 10:25:56;;;;;;;32.40;20.00;;;;;;;2.94;70.90;99872.75;106764;1257;60466;-67
2023/02/17 10:28:50;;;;;;;28.80;19.70;;;;;;;3.05;70.81;99867.59;105739;1253;60525;-67
2023/02/17 10:31:26;;;;;;;;;;;;;;;3.05;70.35;99866.21;105784;1256;74028;-71
2023/02/17 10:34:04;;;;;;;27.50;19.80;;;;;;;3.00;70.19;99867.99;105842;1256;71032;-68
2023/02/17 10:36:53;;;;;;;30.30;19.90;;;;;;;2.96;70.42;99867.71;105677;1257;72870;-68
2023/02/17 10:39:33;;;;;;;33.60;20.60;;;;;;;2.95;70.29;99871.30;105589;1255;60354;-65
2023/02/17 10:42:02;;;;;;;30.30;20.50;;;;;;;2.93;70.42;99875.23;105692;1257;60542;-66
2023/02/17 10:44:33;;;;;;;29.90;21.00;;;;;;;2.93;70.30;99875.27;105467;1257;72436;-68
2023/02/17 10:47:01;;;;;;;32.00;22.40;;;;;;;2.91;70.22;99872.84;105812;1257;70645;-68
2023/02/17 10:49:40;;;;;;;34.60;22.10;;;;;;;2.87;70.29;99870.46;106112;1257;72898;-71
2023/02/17 10:52:10;;;;;;;31.20;23.00;;;;;;;2.85;70.33;99876.05;105732;1253;60536;-68
2023/02/17 10:54:42;;;;;;;35.20;22.00;;;;;;;2.85;70.22;99877.42;105765;1257;60470;-69
2023/02/17 10:57:11;;;;;;;28.50;18.60;;;;;;;2.87;70.39;99877.52;105731;1256;74579;-68
2023/02/17 10:59:41;;;;;;;32.50;20.70;;;;;;;2.93;70.16;99877.02;105618;1254;71314;-68
2023/02/17 11:02:33;;;;;;;33.20;21.90;;;;;;;3.05;69.97;99875.23;105697;1252;70513;-68
2023/02/17 11:05:01;;;;;;;29.80;21.60;;;;;;;3.13;69.95;99873.96;105838;1257;60490;-67
2023/02/17 11:07:35;;;;;;;34.80;21.60;;;;;;;3.15;69.78;99872.06;105695;1256;61512;-66
2023/02/17 11:10:27;;;;;;;33.30;21.30;;;;;;;3.16;69.73;99874.63;105461;1251;73728;-68
2023/02/17 11:12:57;;;;;;;34.90;21.40;;;;;;;3.17;69.38;99870.11;105675;1251;71299;-67
2023/02/17 11:15:49;;;;;;;31.60;21.60;;;;;;;3.16;69.46;99874.95;105480;1251;71846;-67
2023/02/17 11:18:20;;;;;;;36.50;22.40;;;;;;;3.15;69.37;99871.49;105593;1252;60407;-66
2023/02/17 11:20:49;;;;;;;36.20;23.30;;;;;;;3.13;69.33;99873.38;105246;1257;60850;-66
2023/02/17 11:23:21;;;;;;;36.70;24.30;;;;;;;3.12;69.50;99873.46;105646;1257;72917;-67
2023/02/17 11:26:02;;;;;;;44.20;25.90;;;;;;;3.14;69.41;99874.42;105621;1257;71284;-67
2023/02/17 11:28:30;;;;;;;41.40;24.60;;;;;;;3.14;69.20;99875.73;105527;1256;73385;-69
2023/02/17 11:31:01;;;;;;;36.90;23.50;;;;;;;3.15;69.22;99877.95;105589;1257;60512;-68
2023/02/17 11:33:36;;;;;;;37.90;24.60;;;;;;;3.16;69.15;99877.77;105617;1251;61330;-67
2023/02/17 11:36:06;;;;;;;35.70;21.90;;;;;;;3.11;69.02;99875.98;105655;1256;74073;-66
2023/02/17 11:38:38;;;;;;;39.60;24.00;;;;;;;3.18;68.95;99877.58;105740;1260;70526;-68
2023/02/17 11:41:08;;;;;;;40.60;25.40;;;;;;;3.26;69.09;99873.10;105819;1256;73997;-67
2023/02/17 11:43:38;;;;;;;41.30;24.20;;;;;;;3.28;69.39;99873.33;105867;1257;60517;-72